createdAt,value
2017-04-16T00:00:02.686Z,6.4
2017-04-16T00:05:02.596Z,6.4
2017-04-16T00:10:03.560Z,6.4
2017-04-16T00:15:03.439Z,6.4
2017-04-16T00:20:03.334Z,6.5
2017-04-16T00:25:02.889Z,6.5
2017-04-16T00:30:02.636Z,6.4
2017-04-16T00:35:03.235Z,6.5
2017-04-16T00:40:03.104Z,6.5
2017-04-16T00:45:02.672Z,6.5
2017-04-16T00:50:03.223Z,6.5
2017-04-16T00:55:02.831Z,6.5
2017-04-16T01:00:02.675Z,6.5
2017-04-16T01:05:02.487Z,6.4
2017-04-16T01:10:03.099Z,6.5
2017-04-16T01:15:02.695Z,6.5
2017-04-16T01:20:02.589Z,6.5
2017-04-16T01:25:02.465Z,6.4
2017-04-16T01:30:03.221Z,6.5
2017-04-16T01:35:03.066Z,6.1
2017-04-16T01:40:02.819Z,6.1
2017-04-16T01:45:02.544Z,6.1
2017-04-16T01:50:03.328Z,6.1
2017-04-16T01:55:03.053Z,5.5
2017-04-16T02:00:02.589Z,5.5
2017-04-16T02:05:03.333Z,5.5
2017-04-16T02:10:02.985Z,5.4
2017-04-16T02:15:02.780Z,5.4
2017-04-16T02:20:02.564Z,5.4
2017-04-16T02:25:03.391Z,5.4
2017-04-16T02:30:03.015Z,5.4
2017-04-16T02:35:02.578Z,5.4
2017-04-16T02:40:03.154Z,5.3
2017-04-16T02:45:02.848Z,5.4
2017-04-16T02:50:02.837Z,5.3
2017-04-16T02:55:02.587Z,5.3
2017-04-16T03:00:03.229Z,5.0
2017-04-16T03:05:02.843Z,5.3
2017-04-16T03:10:02.612Z,5.0
2017-04-16T03:15:03.223Z,5.0
2017-04-16T03:20:02.952Z,5.0
2017-04-16T03:25:02.681Z,5.0
2017-04-16T03:30:03.220Z,5.0
2017-04-16T03:35:02.800Z,5.0
2017-04-16T03:40:03.023Z,5.0
2017-04-16T03:45:02.801Z,5.0
2017-04-16T03:50:02.668Z,5.0
2017-04-16T03:55:03.345Z,5.0
2017-04-16T04:00:02.889Z,5.0
2017-04-16T04:05:02.629Z,5.0
2017-04-16T04:10:03.308Z,5.0
2017-04-16T04:15:03.251Z,5.0
2017-04-16T04:20:02.871Z,5.0
2017-04-16T04:25:02.712Z,5.0
2017-04-16T04:30:03.521Z,5.0
2017-04-16T04:35:03.422Z,5.0
2017-04-16T04:40:03.309Z,5.0
2017-04-16T04:45:03.034Z,5.0
2017-04-16T04:50:03.616Z,5.0
2017-04-16T04:55:03.173Z,5.3
2017-04-16T05:00:02.811Z,5.3
2017-04-16T05:05:02.457Z,5.3
2017-04-16T05:10:03.385Z,5.4
2017-04-16T05:15:02.952Z,5.4
2017-04-16T05:20:02.723Z,5.5
2017-04-16T05:25:02.938Z,5.8
2017-04-16T05:30:02.570Z,5.8
2017-04-16T05:35:03.293Z,6.0
2017-04-16T05:40:03.028Z,6.0
2017-04-16T05:45:02.713Z,6.1
2017-04-16T05:50:02.450Z,6.4
2017-04-16T05:55:03.159Z,6.5
2017-04-16T06:00:03.036Z,6.5
2017-04-16T06:05:02.668Z,6.6
2017-04-16T06:10:02.416Z,6.6
2017-04-16T06:15:03.310Z,6.9
2017-04-16T06:20:03.018Z,6.9
2017-04-16T06:25:02.863Z,6.9
2017-04-16T06:30:02.568Z,6.9
2017-04-16T06:35:03.309Z,6.9
2017-04-16T06:40:03.145Z,7.0
2017-04-16T06:45:02.851Z,7.0
2017-04-16T06:50:02.399Z,7.0
2017-04-16T06:55:02.926Z,7.0
2017-04-16T07:00:02.717Z,7.4
2017-04-16T07:05:02.577Z,7.5
2017-04-16T07:10:03.336Z,8.1
2017-04-16T07:15:02.908Z,8.3
2017-04-16T07:20:02.595Z,8.5
2017-04-16T07:25:03.289Z,8.8
2017-04-16T07:30:03.424Z,8.8
2017-04-16T07:35:03.040Z,8.8
2017-04-16T07:40:02.827Z,8.8
2017-04-16T07:45:02.413Z,9.0
2017-04-16T07:50:03.167Z,9.0
2017-04-16T07:55:03.159Z,9.1
2017-04-16T08:00:02.729Z,10.0
2017-04-16T08:05:03.303Z,10.6
2017-04-16T08:10:03.114Z,10.1
2017-04-16T08:15:02.767Z,10.5
2017-04-16T08:20:02.476Z,10.1
2017-04-16T08:25:03.216Z,10.6
2017-04-16T08:30:02.773Z,10.3
2017-04-16T08:35:02.500Z,10.5
2017-04-16T08:40:03.311Z,10.8
2017-04-16T08:45:03.243Z,10.5
2017-04-16T08:50:03.009Z,12.3
2017-04-16T08:55:02.889Z,12.1
2017-04-16T09:00:02.770Z,12.1
2017-04-16T09:05:02.492Z,12.1
2017-04-16T09:10:02.660Z,12.1
2017-04-16T09:15:02.489Z,11.1
2017-04-16T09:20:03.372Z,10.8
2017-04-16T09:25:03.101Z,10.5
2017-04-16T09:30:03.385Z,10.8
2017-04-16T09:35:03.293Z,11.6
2017-04-16T09:40:02.683Z,11.6
2017-04-16T09:45:02.591Z,11.1
2017-04-16T09:50:03.387Z,11.3
2017-04-16T09:55:03.383Z,11.6
2017-04-16T10:00:03.448Z,11.3
2017-04-16T10:05:03.199Z,12.6
2017-04-16T10:10:02.808Z,13.5
2017-04-16T10:15:02.543Z,14.6
2017-04-16T10:20:03.356Z,14.1
2017-04-16T10:25:03.153Z,12.1
2017-04-16T10:30:02.958Z,10.1
2017-04-16T10:35:03.225Z,7.1
2017-04-16T10:40:03.490Z,6.1
2017-04-16T10:45:02.629Z,6.5
2017-04-16T10:50:03.050Z,6.9
2017-04-16T10:55:02.677Z,6.9
2017-04-16T11:00:02.958Z,7.5
2017-04-16T11:05:02.857Z,7.9
2017-04-16T11:10:02.954Z,7.9
2017-04-16T11:15:02.562Z,8.1
2017-04-16T11:20:03.157Z,8.5
2017-04-16T11:25:02.994Z,9.0
2017-04-16T11:30:03.161Z,10.0
2017-04-16T11:35:02.803Z,9.1
2017-04-16T11:40:02.651Z,9.1
2017-04-16T11:45:02.449Z,9.0
2017-04-16T11:50:03.264Z,9.5
2017-04-16T11:55:02.856Z,10.1
2017-04-16T12:00:02.513Z,10.5
2017-04-16T12:05:03.468Z,9.3
2017-04-16T12:10:03.265Z,10.0
2017-04-16T12:15:02.923Z,10.1
2017-04-16T12:20:02.736Z,10.1
2017-04-16T12:25:03.362Z,9.6
2017-04-16T12:30:03.078Z,9.3
2017-04-16T12:35:02.825Z,8.6
2017-04-16T12:40:02.743Z,8.6
2017-04-16T12:45:03.557Z,8.0
2017-04-16T12:50:03.471Z,8.1
2017-04-16T12:55:03.078Z,8.5
2017-04-16T13:00:02.982Z,8.6
2017-04-16T13:05:03.544Z,9.3
2017-04-16T13:10:02.538Z,10.0
2017-04-16T13:15:03.252Z,10.8
2017-04-16T13:20:03.459Z,10.8
2017-04-16T13:25:03.265Z,10.8
2017-04-16T13:30:02.839Z,10.5
2017-04-16T13:35:02.425Z,10.8
2017-04-16T13:40:02.477Z,11.3
2017-04-16T13:45:03.255Z,12.8
2017-04-16T13:50:03.026Z,12.3
2017-04-16T13:55:03.045Z,13.1
2017-04-16T14:00:03.359Z,12.0
2017-04-16T14:05:03.307Z,12.8
2017-04-16T14:10:03.032Z,12.1
2017-04-16T14:15:02.465Z,12.5
2017-04-16T14:20:03.557Z,10.8
2017-04-16T14:25:03.456Z,9.8
2017-04-16T14:30:02.859Z,8.8
2017-04-16T14:35:03.291Z,9.6
2017-04-16T14:40:03.093Z,10.8
2017-04-16T14:45:03.332Z,10.3
2017-04-16T14:50:02.839Z,9.1
2017-04-16T14:55:02.999Z,8.8
2017-04-16T15:00:03.255Z,8.8
2017-04-16T15:05:03.237Z,8.8
2017-04-16T15:10:03.205Z,8.3
2017-04-16T15:15:03.222Z,8.3
2017-04-16T15:20:03.487Z,9.1
2017-04-16T15:25:02.409Z,9.6
2017-04-16T15:30:02.460Z,9.5
2017-04-16T15:35:03.230Z,9.8
2017-04-16T15:40:03.109Z,9.8
2017-04-16T15:45:02.806Z,10.0
2017-04-16T15:50:02.498Z,10.0
2017-04-16T15:55:03.142Z,9.6
2017-04-16T16:00:02.993Z,10.0
2017-04-16T16:05:02.549Z,9.8
2017-04-16T16:10:03.357Z,9.8
2017-04-16T16:15:02.964Z,10.1
2017-04-16T16:20:02.959Z,10.3
2017-04-16T16:25:02.499Z,10.0
2017-04-16T16:30:03.069Z,9.8
2017-04-16T16:35:02.822Z,9.6
2017-04-16T16:40:02.764Z,8.0
2017-04-16T16:45:02.687Z,7.4
2017-04-16T16:50:03.437Z,7.1
2017-04-16T16:55:03.329Z,7.1
2017-04-16T17:00:03.019Z,7.0
2017-04-16T17:05:02.633Z,7.0
2017-04-16T17:10:03.405Z,7.1
2017-04-16T17:15:02.447Z,7.1
2017-04-16T17:20:03.079Z,7.4
2017-04-16T17:25:02.601Z,7.5
2017-04-16T17:30:03.397Z,7.9
2017-04-16T17:35:03.282Z,8.3
2017-04-16T17:40:03.018Z,8.6
2017-04-16T17:45:02.804Z,9.1
2017-04-16T17:50:02.949Z,8.3
2017-04-16T17:55:02.696Z,7.9
2017-04-16T18:00:02.440Z,7.4
2017-04-16T18:05:03.290Z,7.1
2017-04-16T18:10:03.109Z,7.0
2017-04-16T18:15:02.708Z,7.0
2017-04-16T18:20:03.368Z,6.9
2017-04-16T18:25:03.110Z,6.9
2017-04-16T18:30:02.885Z,7.0
2017-04-16T18:35:02.797Z,7.0
2017-04-16T18:40:02.506Z,6.9
2017-04-16T18:45:03.374Z,7.0
2017-04-16T18:50:03.008Z,7.1
2017-04-16T18:55:02.994Z,7.1
2017-04-16T19:00:02.793Z,7.1
2017-04-16T19:05:02.498Z,7.0
2017-04-16T19:10:03.220Z,7.0
2017-04-16T19:15:02.860Z,7.0
2017-04-16T19:20:02.619Z,7.0
2017-04-16T19:25:03.229Z,6.9
2017-04-16T19:30:03.298Z,6.9
2017-04-16T19:35:02.902Z,6.6
2017-04-16T19:40:02.721Z,6.9
2017-04-16T19:45:03.330Z,6.6
2017-04-16T19:50:02.956Z,6.6
2017-04-16T19:55:02.874Z,6.6
2017-04-16T20:00:02.608Z,6.6
2017-04-16T20:05:02.511Z,6.9
2017-04-16T20:10:03.445Z,6.9
2017-04-16T20:15:03.224Z,6.9
2017-04-16T20:20:03.032Z,7.0
2017-04-16T20:25:02.789Z,6.9
2017-04-16T20:30:02.593Z,6.6
2017-04-16T20:35:03.227Z,6.9
2017-04-16T20:40:02.892Z,6.9
2017-04-16T20:45:02.758Z,7.0
2017-04-16T20:50:02.523Z,6.9
2017-04-16T20:55:03.195Z,6.9
2017-04-16T21:00:02.929Z,6.9
2017-04-16T21:05:02.699Z,6.9
2017-04-16T21:10:02.944Z,6.9
2017-04-16T21:15:02.710Z,6.6
2017-04-16T21:20:02.579Z,6.6
2017-04-16T21:25:03.600Z,6.6
2017-04-16T21:30:03.249Z,6.6
2017-04-16T21:35:02.997Z,6.6
2017-04-16T21:40:02.902Z,6.5
2017-04-16T21:45:02.715Z,6.6
2017-04-16T21:50:03.337Z,6.5
2017-04-16T21:55:03.321Z,6.5
2017-04-16T22:00:02.911Z,6.5
2017-04-16T22:05:02.613Z,6.5
2017-04-16T22:10:03.339Z,6.5
2017-04-16T22:15:02.957Z,6.5
2017-04-16T22:20:02.795Z,6.5
2017-04-16T22:25:02.628Z,6.5
2017-04-16T22:30:03.204Z,6.5
2017-04-16T22:35:02.940Z,6.5
2017-04-16T22:40:02.611Z,6.5
2017-04-16T22:45:03.216Z,6.4
2017-04-16T22:50:02.769Z,6.5
2017-04-16T22:55:02.454Z,6.5
2017-04-16T23:00:03.039Z,6.4
2017-04-16T23:05:03.134Z,6.4
2017-04-16T23:10:02.850Z,6.4
2017-04-16T23:15:02.723Z,6.5
2017-04-16T23:20:02.536Z,6.1
2017-04-16T23:25:03.091Z,6.0
2017-04-16T23:30:02.732Z,5.4
2017-04-16T23:35:02.611Z,5.4
2017-04-16T23:40:03.207Z,5.3
2017-04-16T23:45:02.848Z,5.3
2017-04-16T23:50:02.807Z,5.0
2017-04-16T23:55:02.506Z,5.0
